Time;durP1;ratioP1;P1;durP2;ratioP2;P2;SDS_P1;SDS_P2;PMS_P1;PMS_P2;Temp;Humidity;BMP_temperature;BMP_pressure;BME280_temperature;BME280_humidity;BME280_pressure;Samples;Min_cycle;Max_cycle;Signal;HPM_P1;HPM_P2
2021/03/17 00:02:08;;;;;;;9.65;7.82;;;;;;;5.86;90.72;98734.41;5013986;28;20505;-72
2021/03/17 00:04:37;;;;;;;9.95;7.63;;;;;;;5.78;90.45;98736.31;5014174;28;20595;-73
2021/03/17 00:07:04;;;;;;;9.13;7.60;;;;;;;5.90;91.76;98738.50;5014238;28;20544;-72
2021/03/17 00:09:30;;;;;;;9.35;7.63;;;;;;;5.78;92.52;98741.34;5012817;28;20053;-73
2021/03/17 00:11:57;;;;;;;9.65;7.65;;;;;;;5.90;92.43;98735.97;5014082;28;20077;-72
2021/03/17 00:14:23;;;;;;;11.20;7.82;;;;;;;5.78;91.32;98732.09;5013816;28;20029;-73
2021/03/17 00:16:49;;;;;;;10.68;8.15;;;;;;;5.82;92.41;98735.34;5013900;28;20030;-72
2021/03/17 00:19:14;;;;;;;12.43;9.45;;;;;;;5.81;88.76;98743.75;5014726;28;20569;-72
2021/03/17 00:21:43;;;;;;;18.08;11.85;;;;;;;5.72;91.41;98737.31;5011314;28;20477;-72
2021/03/17 00:24:15;;;;;;;16.05;11.70;;;;;;;5.90;91.27;98741.03;5013727;28;20030;-73
2021/03/17 00:26:41;;;;;;;18.23;13.68;;;;;;;5.76;90.55;98723.75;5013717;28;20112;-72
2021/03/17 00:29:11;;;;;;;21.27;15.77;;;;;;;6.07;90.10;98728.72;5013512;28;20101;-72
2021/03/17 00:31:46;;;;;;;17.90;12.90;;;;;;;5.80;89.24;98725.28;5012387;28;20096;-73
2021/03/17 00:34:12;;;;;;;18.75;14.43;;;;;;;6.06;89.27;98727.09;5013717;28;20025;-72
2021/03/17 00:36:38;;;;;;;17.73;13.90;;;;;;;5.86;88.43;98719.28;5013359;28;20506;-72
2021/03/17 00:39:13;;;;;;;17.10;12.93;;;;;;;5.89;89.37;98731.78;5013297;28;20101;-73
2021/03/17 00:41:43;;;;;;;17.65;13.10;;;;;;;5.94;89.13;98725.72;5013603;28;20108;-72
2021/03/17 00:44:09;;;;;;;16.92;13.30;;;;;;;5.90;91.31;98706.53;5013452;28;20034;-71
2021/03/17 00:46:42;;;;;;;21.45;14.27;;;;;;;6.12;91.51;98712.56;5012075;28;20092;-73
2021/03/17 00:49:12;;;;;;;35.90;19.10;;;;;;;5.89;90.70;98712.44;5013678;28;20490;-72
2021/03/17 00:51:38;;;;;;;33.58;19.35;;;;;;;5.88;90.69;98722.59;5013120;28;20076;-71
2021/03/17 00:54:11;;;;;;;22.20;16.13;;;;;;;6.03;90.51;98717.06;5013000;28;20123;-73
2021/03/17 00:56:37;;;;;;;24.05;15.75;;;;;;;6.01;89.90;98716.28;5012122;28;20041;-72
2021/03/17 00:59:04;;;;;;;18.75;13.68;;;;;;;6.11;90.61;98710.09;5011711;28;20037;-71
2021/03/17 01:01:30;;;;;;;18.60;13.40;;;;;;;6.17;90.77;98707.41;5013030;28;20145;-73
2021/03/17 01:03:57;;;;;;;16.10;12.65;;;;;;;5.84;91.29;98709.22;5013083;28;20160;-72
2021/03/17 01:06:23;;;;;;;16.30;12.55;;;;;;;5.96;90.76;98705.53;5012691;28;20550;-72
2021/03/17 01:09:00;;;;;;;15.35;11.10;;;;;;;5.71;91.33;98699.50;5012905;28;20030;-72
2021/03/17 01:11:27;;;;;;;13.27;10.75;;;;;;;5.93;91.37;98706.44;5013121;28;20030;-71
2021/03/17 01:13:57;;;;;;;12.30;9.90;;;;;;;6.15;87.76;98696.53;5011581;28;20065;-73
2021/03/17 01:16:24;;;;;;;11.48;9.40;;;;;;;6.00;87.22;98702.84;5011666;28;20037;-73
2021/03/17 01:18:59;;;;;;;14.52;10.40;;;;;;;5.61;91.55;98708.22;5012785;28;20446;-73
2021/03/17 01:21:26;;;;;;;16.08;10.80;;;;;;;5.79;89.29;98697.59;5012224;28;20451;-72
2021/03/17 01:23:56;;;;;;;14.70;11.32;;;;;;;6.06;89.19;98691.78;5012891;28;20026;-73
2021/03/17 01:26:22;;;;;;;17.02;13.32;;;;;;;6.06;90.11;98689.25;5012859;28;20026;-73
2021/03/17 01:28:50;;;;;;;18.95;14.20;;;;;;;6.04;90.64;98693.53;5012623;28;20029;-72
2021/03/17 01:31:16;;;;;;;19.50;13.85;;;;;;;6.11;90.61;98694.97;5012493;28;20026;-73
2021/03/17 01:33:51;;;;;;;14.07;11.30;;;;;;;5.98;89.84;98686.94;5012509;28;20518;-72
2021/03/17 01:36:16;;;;;;;16.98;12.45;;;;;;;5.91;91.44;98689.69;5010951;28;20058;-72
2021/03/17 01:38:51;;;;;;;16.05;12.20;;;;;;;6.19;88.38;98693.03;5013329;28;20065;-73
2021/03/17 01:41:18;;;;;;;17.08;12.93;;;;;;;6.21;90.19;98693.81;5012605;28;20068;-73
2021/03/17 01:43:44;;;;;;;15.95;12.75;;;;;;;5.89;89.75;98689.75;5012320;28;20058;-72
2021/03/17 01:46:11;;;;;;;15.02;11.80;;;;;;;5.77;90.36;98690.09;5012286;28;20131;-71
2021/03/17 01:48:37;;;;;;;14.73;10.52;;;;;;;5.97;90.05;98697.09;5012020;28;20049;-72
2021/03/17 01:51:04;;;;;;;14.27;10.75;;;;;;;5.84;88.82;98670.59;5012023;28;20041;-72
2021/03/17 01:53:36;;;;;;;15.15;11.65;;;;;;;5.76;90.82;98692.66;5011140;28;20030;-72
2021/03/17 01:56:03;;;;;;;15.38;11.48;;;;;;;5.96;89.76;98675.28;5012053;28;20065;-72
2021/03/17 01:58:31;;;;;;;17.42;12.38;;;;;;;6.02;87.64;98687.69;5011872;28;20499;-72
2021/03/17 02:00:59;;;;;;;16.05;11.73;;;;;;;5.90;88.51;98681.31;5011829;28;20041;-73
2021/03/17 02:03:31;;;;;;;19.38;14.30;;;;;;;5.83;89.27;98679.00;5010637;28;20259;-73
2021/03/17 02:05:56;;;;;;;;;;;;;;;6.00;89.48;98679.34;5012258;28;20034;-73
2021/03/17 02:08:29;;;;;;;19.00;13.45;;;;;;;5.95;90.32;98684.53;5011719;28;20004;-73
2021/03/17 02:10:55;;;;;;;14.95;10.35;;;;;;;5.71;89.11;98681.88;5011678;28;20065;-72
2021/03/17 02:13:39;;;;;;;15.73;11.45;;;;;;;5.86;91.19;98684.00;5010726;28;20065;-73
2021/03/17 02:16:12;;;;;;;13.70;10.85;;;;;;;5.75;89.97;98688.47;5011743;28;20041;-73
2021/03/17 02:18:38;;;;;;;15.70;11.32;;;;;;;5.75;88.50;98685.94;5010155;28;20030;-73
2021/03/17 02:21:42;;;;;;;14.60;10.85;;;;;;;5.76;88.01;98688.44;5010096;28;20128;-72
2021/03/17 02:24:20;;;;;;;12.60;10.25;;;;;;;5.91;88.15;98682.13;5010329;28;20037;-73
2021/03/17 02:27:29;;;;;;;13.35;10.15;;;;;;;6.03;88.97;98686.81;5010434;28;20029;-72
2021/03/17 02:30:40;;;;;;;12.68;9.93;;;;;;;5.82;87.85;98687.44;5010266;28;20076;-72
2021/03/17 02:33:36;;;;;;;13.40;10.60;;;;;;;6.06;88.15;98692.59;5010127;28;20037;-73
2021/03/17 02:36:27;;;;;;;13.68;10.60;;;;;;;6.04;91.36;98693.53;5011203;28;20038;-73
2021/03/17 02:39:17;;;;;;;13.27;10.00;;;;;;;6.12;88.54;98694.91;5010342;28;20180;-72
2021/03/17 02:42:09;;;;;;;14.35;10.45;;;;;;;5.79;88.29;98682.47;5009549;28;20056;-72
2021/03/17 02:44:52;;;;;;;13.05;9.93;;;;;;;6.16;89.64;98690.59;5011084;28;20034;-72
2021/03/17 02:47:18;;;;;;;11.75;9.00;;;;;;;6.24;88.50;98700.47;5010022;28;20040;-72
2021/03/17 02:49:48;;;;;;;10.95;8.45;;;;;;;6.27;88.50;98692.78;5010201;28;20061;-73
2021/03/17 02:52:14;;;;;;;10.60;8.68;;;;;;;6.16;89.64;98692.31;5011459;28;20034;-73
2021/03/17 02:54:47;;;;;;;11.10;8.60;;;;;;;6.01;89.56;98698.63;5011218;28;20032;-72
2021/03/17 02:57:23;;;;;;;12.02;8.60;;;;;;;5.73;90.10;98701.13;5011172;28;20050;-72
2021/03/17 02:59:54;;;;;;;11.05;8.43;;;;;;;6.03;88.24;98695.22;5011937;28;20022;-72
2021/03/17 03:02:23;;;;;;;9.52;6.85;;;;;;;5.85;86.79;98698.28;5011224;28;20384;-72
2021/03/17 03:04:56;;;;;;;11.35;8.60;;;;;;;6.12;86.03;98691.56;5011034;28;20034;-72
2021/03/17 03:07:23;;;;;;;11.38;8.43;;;;;;;5.92;86.71;98691.38;5009820;28;20040;-72
2021/03/17 03:09:52;;;;;;;9.95;7.88;;;;;;;6.11;85.72;98694.97;5009782;28;20034;-72
2021/03/17 03:12:19;;;;;;;11.05;8.40;;;;;;;6.25;87.76;98692.00;5011071;28;20033;-73
2021/03/17 03:14:46;;;;;;;14.25;8.43;;;;;;;6.21;88.63;98695.50;5009953;28;20022;-72
2021/03/17 03:17:17;;;;;;;12.65;8.25;;;;;;;6.09;89.29;98694.19;5009751;28;20028;-72
2021/03/17 03:19:49;;;;;;;11.10;8.73;;;;;;;6.02;89.34;98698.59;5006425;28;20153;-72
2021/03/17 03:22:25;;;;;;;12.00;8.02;;;;;;;6.13;89.14;98689.00;5011104;28;20530;-73
2021/03/17 03:24:54;;;;;;;11.68;8.48;;;;;;;6.02;88.06;98687.69;5010011;28;20069;-73
2021/03/17 03:27:32;;;;;;;10.90;7.97;;;;;;;6.00;86.90;98661.69;5009952;28;20507;-74
2021/03/17 03:30:05;;;;;;;10.68;7.78;;;;;;;6.23;88.63;98684.50;5011416;28;20028;-73
2021/03/17 03:32:32;;;;;;;10.32;7.90;;;;;;;6.28;87.04;98689.41;5011137;28;20133;-73
2021/03/17 03:35:05;;;;;;;10.73;8.27;;;;;;;6.18;86.54;98693.88;5009925;28;20419;-73
2021/03/17 03:37:33;;;;;;;10.38;8.10;;;;;;;5.82;88.78;98672.31;5011207;28;20026;-75
2021/03/17 03:40:00;;;;;;;12.50;7.85;;;;;;;6.13;87.70;98688.19;5011319;28;20026;-72
2021/03/17 03:42:31;;;;;;;11.52;8.57;;;;;;;6.19;87.46;98689.69;5010821;28;20503;-73
2021/03/17 03:45:08;;;;;;;10.50;8.55;;;;;;;6.16;87.83;98692.31;5010885;28;20032;-73
2021/03/17 03:47:36;;;;;;;12.60;10.82;;;;;;;5.96;87.46;98695.44;5011110;28;20614;-73
2021/03/17 03:50:04;;;;;;;21.42;16.33;;;;;;;5.90;87.69;98691.38;5011378;28;20340;-74
2021/03/17 03:52:50;;;;;;;34.20;24.75;;;;;;;6.02;87.41;98677.63;5009510;28;20120;-75
2021/03/17 03:55:21;;;;;;;19.98;14.40;;;;;;;6.06;88.28;98689.25;5010859;28;20481;-72
2021/03/17 03:58:01;;;;;;;82.25;43.65;;;;;;;5.97;87.30;98687.00;5013663;28;20032;-72
2021/03/17 04:00:40;;;;;;;69.10;38.58;;;;;;;5.95;87.88;98681.19;5014113;28;20479;-71
2021/03/17 04:03:13;;;;;;;67.38;37.78;;;;;;;5.98;89.44;98688.66;5014335;28;20413;-73
2021/03/17 04:05:42;;;;;;;40.58;24.27;;;;;;;6.03;88.04;98679.25;5014107;28;20026;-72
2021/03/17 04:08:17;;;;;;;36.63;23.45;;;;;;;6.06;88.00;98687.53;5013983;28;20056;-72
2021/03/17 04:10:51;;;;;;;28.17;18.50;;;;;;;5.99;88.78;98680.22;5013922;28;20404;-71
2021/03/17 04:13:21;;;;;;;26.15;19.60;;;;;;;5.79;90.31;98685.00;5012822;28;20026;-72
2021/03/17 04:15:49;;;;;;;25.13;18.95;;;;;;;5.76;91.40;98703.56;5012437;28;20487;-71
2021/03/17 04:18:31;;;;;;;22.83;18.15;;;;;;;6.18;88.18;98691.38;5013794;28;20040;-72
2021/03/17 04:21:15;;;;;;;15.10;12.52;;;;;;;5.90;89.33;98688.06;5012392;28;20108;-72
2021/03/17 04:23:45;;;;;;;26.80;17.83;;;;;;;6.06;88.90;98691.78;5013944;28;20034;-72
2021/03/17 04:26:13;;;;;;;25.42;17.42;;;;;;;6.02;88.58;98685.19;5013689;28;20045;-72
2021/03/17 04:28:42;;;;;;;23.70;17.17;;;;;;;6.16;89.02;98694.84;5013566;28;20080;-72
2021/03/17 04:31:09;;;;;;;12.25;9.73;;;;;;;5.95;86.71;98693.78;5013757;28;20032;-72
2021/03/17 04:33:39;;;;;;;11.90;9.20;;;;;;;6.05;89.03;98700.19;5013408;28;20061;-72
2021/03/17 04:36:08;;;;;;;10.38;8.18;;;;;;;6.02;87.96;98685.97;5013107;28;20042;-72
2021/03/17 04:38:36;;;;;;;10.80;7.60;;;;;;;6.03;87.94;98704.47;5012262;28;20435;-72
2021/03/17 04:41:04;;;;;;;11.25;8.30;;;;;;;6.04;87.28;98704.41;5013198;28;20100;-72
2021/03/17 04:43:33;;;;;;;12.68;9.10;;;;;;;5.92;86.34;98696.41;5012091;28;20052;-73
2021/03/17 04:46:01;;;;;;;11.80;8.88;;;;;;;5.95;88.72;98697.13;5012087;28;20045;-74
2021/03/17 04:48:28;;;;;;;13.00;10.32;;;;;;;6.03;86.59;98692.69;5012009;28;20022;-72
2021/03/17 04:50:55;;;;;;;13.00;8.18;;;;;;;6.17;86.82;98699.81;5012034;28;20029;-73
2021/03/17 04:53:22;;;;;;;9.68;7.60;;;;;;;6.18;86.15;98705.69;5011928;28;20022;-72
2021/03/17 04:55:48;;;;;;;12.52;8.80;;;;;;;6.06;86.99;98705.19;5011793;28;20554;-72
2021/03/17 04:58:19;;;;;;;12.77;7.63;;;;;;;6.09;87.76;98704.28;5011902;28;20052;-71
2021/03/17 05:00:47;;;;;;;11.25;7.60;;;;;;;6.09;85.96;98711.84;5012876;28;20104;-72
2021/03/17 05:03:17;;;;;;;19.95;14.35;;;;;;;6.11;86.11;98710.94;5011422;28;20038;-73
2021/03/17 05:05:54;;;;;;;24.85;14.73;;;;;;;6.18;84.98;98705.69;5012963;28;20096;-72
2021/03/17 05:08:25;;;;;;;19.10;12.90;;;;;;;6.14;85.15;98710.81;5012694;28;20026;-72
2021/03/17 05:10:54;;;;;;;20.05;15.18;;;;;;;6.28;85.20;98715.44;5012721;28;20040;-72
2021/03/17 05:13:30;;;;;;;14.55;10.43;;;;;;;6.15;84.93;98709.13;5012922;28;20570;-72
2021/03/17 05:15:56;;;;;;;14.95;11.27;;;;;;;6.18;86.34;98726.69;5011819;28;20411;-73
2021/03/17 05:18:26;;;;;;;12.35;10.20;;;;;;;6.32;84.88;98732.13;5012728;28;20018;-72
2021/03/17 05:20:57;;;;;;;13.55;9.18;;;;;;;6.23;84.06;98724.03;5011115;28;20049;-72
2021/03/17 05:23:23;;;;;;;17.08;14.02;;;;;;;6.32;84.46;98724.56;5012515;28;20435;-72
2021/03/17 05:25:50;;;;;;;12.27;8.95;;;;;;;6.19;83.16;98720.78;5011409;28;20034;-72
2021/03/17 05:28:17;;;;;;;14.50;11.15;;;;;;;6.44;83.81;98723.38;5012565;28;20033;-71
2021/03/17 05:30:48;;;;;;;13.65;9.55;;;;;;;6.54;83.17;98730.59;5010921;28;20522;-72
2021/03/17 05:33:24;;;;;;;14.23;11.17;;;;;;;6.44;82.31;98725.91;5010826;28;20033;-72
2021/03/17 05:35:52;;;;;;;16.40;13.68;;;;;;;6.48;82.47;98735.84;5011784;28;20253;-72
2021/03/17 05:38:18;;;;;;;14.98;12.75;;;;;;;6.40;83.84;98731.94;5010810;28;20038;-72
2021/03/17 05:40:50;;;;;;;12.75;11.18;;;;;;;6.53;81.90;98738.22;5012265;28;20025;-73
2021/03/17 05:43:20;;;;;;;13.38;9.85;;;;;;;6.26;84.64;98734.84;5010980;28;20504;-73
2021/03/17 05:45:55;;;;;;;28.27;19.48;;;;;;;6.37;84.09;98740.41;5012993;28;20041;-72
2021/03/17 05:48:26;;;;;;;31.85;20.85;;;;;;;6.46;83.86;98740.09;5010870;28;20181;-72
2021/03/17 05:50:52;;;;;;;27.35;18.90;;;;;;;6.37;84.44;98740.41;5010967;28;20026;-72
2021/03/17 05:53:22;;;;;;;23.75;16.48;;;;;;;6.38;83.91;98731.94;5010869;28;20036;-73
2021/03/17 05:55:49;;;;;;;17.15;13.02;;;;;;;6.49;83.32;98749.28;5011712;28;20403;-72
2021/03/17 05:58:16;;;;;;;17.35;12.07;;;;;;;6.54;84.28;98743.22;5012128;28;20160;-73
2021/03/17 06:00:49;;;;;;;14.30;11.35;;;;;;;6.42;83.85;98747.84;5011664;28;20026;-72
2021/03/17 06:03:16;;;;;;;28.65;19.75;;;;;;;6.44;84.41;98749.41;5010549;28;20036;-72
2021/03/17 06:05:44;;;;;;;34.08;22.85;;;;;;;6.33;83.10;98745.59;5010874;28;20095;-72
2021/03/17 06:08:23;;;;;;;21.67;14.13;;;;;;;6.28;83.92;98755.00;5010581;28;20045;-72
2021/03/17 06:10:51;;;;;;;20.08;13.55;;;;;;;6.48;82.58;98750.16;5010633;28;20034;-73
2021/03/17 06:13:21;;;;;;;33.78;23.40;;;;;;;6.49;82.53;98757.69;5010723;28;20033;-73
2021/03/17 06:15:56;;;;;;;33.63;24.83;;;;;;;6.59;84.10;98751.47;5010455;28;20036;-72
2021/03/17 06:18:27;;;;;;;30.75;20.58;;;;;;;6.43;84.01;98759.56;5011362;28;20129;-73
2021/03/17 06:20:56;;;;;;;21.65;16.20;;;;;;;6.33;83.26;98761.56;5011188;28;20042;-72
2021/03/17 06:23:23;;;;;;;22.83;15.05;;;;;;;6.33;84.35;98756.50;5011439;28;20034;-73
2021/03/17 06:26:02;;;;;;;18.10;13.15;;;;;;;6.27;81.84;98759.22;5011709;28;20026;-73
2021/03/17 06:28:33;;;;;;;25.70;14.45;;;;;;;6.27;82.05;98743.25;5010499;28;20052;-73
2021/03/17 06:31:01;;;;;;;30.50;17.08;;;;;;;6.42;83.56;98766.31;5011565;28;20034;-72
2021/03/17 06:33:26;;;;;;;30.73;17.27;;;;;;;6.47;83.16;98761.97;5011532;28;20029;-73
2021/03/17 06:36:21;;;;;;;22.70;15.25;;;;;;;6.43;81.58;98762.94;5010323;28;20025;-72
2021/03/17 06:39:14;;;;;;;27.08;17.02;;;;;;;6.51;82.54;98771.09;5011600;28;20088;-72
2021/03/17 06:42:00;;;;;;;32.50;25.55;;;;;;;6.38;81.37;98766.47;5011362;28;20037;-72
2021/03/17 06:44:29;;;;;;;21.60;17.00;;;;;;;6.52;82.44;98771.91;5010648;28;20065;-73
2021/03/17 06:47:14;;;;;;;27.42;20.20;;;;;;;6.41;83.39;98771.41;5010256;28;20125;-72
2021/03/17 06:49:50;;;;;;;22.73;17.90;;;;;;;6.46;82.95;98772.91;5011584;28;20399;-72
2021/03/17 06:52:31;;;;;;;23.58;17.80;;;;;;;6.38;81.65;98763.94;5010771;28;20033;-71
2021/03/17 06:55:17;;;;;;;19.60;14.95;;;;;;;6.36;83.54;98778.31;5011310;28;20462;-72
2021/03/17 06:57:56;;;;;;;20.63;14.57;;;;;;;6.50;83.25;98776.16;5009568;28;20542;-71
2021/03/17 07:00:38;;;;;;;20.52;14.40;;;;;;;6.72;83.56;98775.44;5009817;28;20044;-72
2021/03/17 07:03:12;;;;;;;19.92;14.70;;;;;;;6.72;81.38;98777.97;5011455;28;20534;-77
2021/03/17 07:05:47;;;;;;;20.40;14.73;;;;;;;6.83;83.09;98760.75;5010660;28;20033;-74
2021/03/17 07:08:30;;;;;;;17.08;13.15;;;;;;;6.79;83.26;98766.78;5011799;28;20116;-75
2021/03/17 07:11:01;;;;;;;20.60;15.25;;;;;;;6.98;83.07;98761.97;4660898;28;10000318;-74
2021/03/17 07:13:31;;;;;;;40.70;30.33;;;;;;;6.82;82.68;98788.59;5005702;28;20033;-76
2021/03/17 07:16:00;;;;;;;50.15;34.40;;;;;;;7.04;81.60;98781.97;5005111;28;20531;-75
2021/03/17 07:18:32;;;;;;;45.50;31.13;;;;;;;6.82;83.11;98766.72;5005206;28;20038;-76
2021/03/17 07:21:07;;;;;;;105.97;52.58;;;;;;;6.97;81.37;98783.06;5004928;28;20077;-75
2021/03/17 07:23:44;;;;;;;40.38;23.65;;;;;;;6.67;83.14;98782.38;5005368;28;20056;-75
2021/03/17 07:26:25;;;;;;;23.92;15.80;;;;;;;7.19;79.71;98790.75;5005419;28;20033;-76
2021/03/17 07:29:06;;;;;;;16.40;12.37;;;;;;;6.87;81.14;98791.81;5004622;28;20046;-76
2021/03/17 07:31:34;;;;;;;22.67;17.38;;;;;;;6.87;81.55;98787.56;4998445;28;20026;-76
2021/03/17 07:34:11;;;;;;;21.00;16.98;;;;;;;6.78;81.31;98797.97;5008637;28;20495;-75
2021/03/17 07:37:00;;;;;;;23.90;16.23;;;;;;;6.95;82.14;98787.34;5010385;28;20495;-75
2021/03/17 07:39:36;;;;;;;25.67;16.95;;;;;;;7.12;80.95;98799.41;5009227;28;20091;-75
2021/03/17 07:42:08;;;;;;;33.92;21.60;;;;;;;7.08;80.93;98797.84;5009203;28;20439;-74
2021/03/17 07:44:43;;;;;;;;;;;;;;;6.93;81.04;98811.84;5009710;28;20419;-74
2021/03/17 07:47:11;;;;;;;22.60;16.08;;;;;;;6.71;80.38;98794.03;5007224;28;19917;-74
2021/03/17 07:49:43;;;;;;;20.70;15.02;;;;;;;6.79;80.58;98802.16;5009124;28;20025;-74
2021/03/17 07:52:22;;;;;;;15.73;11.45;;;;;;;6.89;81.27;98817.84;5008509;28;20034;-74
2021/03/17 07:54:55;;;;;;;17.50;13.98;;;;;;;6.79;80.94;98797.09;5007307;28;20057;-77
2021/03/17 07:57:23;;;;;;;20.15;15.15;;;;;;;6.97;79.57;98821.75;5007680;28;20061;-75
2021/03/17 07:59:51;;;;;;;14.18;11.32;;;;;;;6.80;77.34;98802.97;5008894;28;20022;-76
2021/03/17 08:02:17;;;;;;;17.20;13.00;;;;;;;6.86;80.03;98826.34;5007756;28;20033;-75
2021/03/17 08:04:45;;;;;;;15.85;12.40;;;;;;;6.98;81.80;98822.59;5007288;28;20033;-73
2021/03/17 08:07:14;;;;;;;22.45;16.75;;;;;;;7.06;81.04;98815.59;5007027;28;20084;-73
2021/03/17 08:09:41;;;;;;;21.30;15.52;;;;;;;7.11;78.89;98818.78;5000351;28;20425;-75
2021/03/17 08:12:13;;;;;;;27.35;18.40;;;;;;;7.37;77.79;98820.47;5004332;28;20693;-74
2021/03/17 08:14:44;;;;;;;25.85;18.02;;;;;;;7.29;79.36;98819.91;5009340;28;20045;-73
2021/03/17 08:17:12;;;;;;;22.73;16.77;;;;;;;7.35;77.89;98824.75;5007238;28;20044;-76
2021/03/17 08:19:41;;;;;;;43.83;26.48;;;;;;;7.39;80.92;98824.59;5007331;28;20065;-74
2021/03/17 08:22:07;;;;;;;75.47;44.20;;;;;;;7.48;78.84;98813.34;5008410;28;20099;-75
2021/03/17 08:24:36;;;;;;;47.72;32.85;;;;;;;7.27;74.84;98809.81;5009876;28;20067;-75
2021/03/17 08:27:06;;;;;;;19.27;15.07;;;;;;;7.26;74.93;98812.41;5008611;28;20030;-76
2021/03/17 08:29:44;;;;;;;22.33;16.05;;;;;;;7.37;74.04;98795.19;5007495;28;20042;-75
2021/03/17 08:32:19;;;;;;;127.25;54.72;;;;;;;7.25;76.93;98820.88;5007642;28;20033;-75
2021/03/17 08:34:55;;;;;;;29.85;19.20;;;;;;;7.34;76.44;98823.94;5008315;28;20026;-74
2021/03/17 08:37:50;;;;;;;51.67;25.25;;;;;;;7.18;75.93;98834.59;5007644;28;20411;-76
2021/03/17 08:40:28;;;;;;;20.88;13.25;;;;;;;7.11;76.49;98833.16;5008728;28;20504;-75
2021/03/17 08:42:56;;;;;;;34.33;16.33;;;;;;;7.36;75.12;98817.13;5006308;28;20167;-75
2021/03/17 08:45:23;;;;;;;34.63;19.98;;;;;;;7.28;76.34;98824.13;5006297;28;20026;-75
2021/03/17 08:47:50;;;;;;;47.85;24.42;;;;;;;7.14;78.34;98813.66;5005829;28;20061;-74
2021/03/17 08:50:22;;;;;;;31.63;18.92;;;;;;;7.13;78.85;98844.84;5006104;28;20053;-74
2021/03/17 08:52:50;;;;;;;68.50;32.85;;;;;;;7.21;79.59;98845.41;5005927;28;20481;-78
2021/03/17 08:55:42;;;;;;;39.22;22.05;;;;;;;7.41;78.92;98838.00;5005737;28;20034;-75
2021/03/17 08:58:23;;;;;;;38.53;20.30;;;;;;;7.05;78.97;98838.41;5007257;28;20409;-75
2021/03/17 09:01:00;;;;;;;44.42;23.27;;;;;;;7.15;79.10;98827.13;5007269;28;20034;-76
2021/03/17 09:03:44;;;;;;;42.72;20.08;;;;;;;7.21;78.71;98844.59;5006443;28;20040;-75
2021/03/17 09:06:12;;;;;;;47.80;22.55;;;;;;;7.16;78.71;98847.28;5007390;28;20065;-75
2021/03/17 09:08:55;;;;;;;23.23;14.38;;;;;;;7.09;78.78;98843.28;5005652;28;20034;-76
2021/03/17 09:11:49;;;;;;;33.42;17.80;;;;;;;7.09;79.57;98847.53;5002667;28;20029;-76
2021/03/17 09:14:24;;;;;;;27.55;17.10;;;;;;;7.11;78.41;98823.03;5008892;28;20225;-76
2021/03/17 09:17:15;;;;;;;16.80;11.70;;;;;;;6.98;79.12;98842.81;5004868;28;20026;-75
2021/03/17 09:20:01;;;;;;;31.20;17.98;;;;;;;7.20;80.93;98842.94;5005622;28;20033;-76
2021/03/17 09:22:45;;;;;;;28.48;17.67;;;;;;;7.32;80.20;98848.44;5005800;28;20048;-74
2021/03/17 09:25:35;;;;;;;26.85;16.17;;;;;;;7.13;79.49;98854.94;5004895;28;20081;-75
2021/03/17 09:28:28;;;;;;;29.75;15.70;;;;;;;6.98;80.21;98840.28;5009095;28;20419;-72
2021/03/17 09:31:06;;;;;;;24.63;14.00;;;;;;;7.29;78.70;98850.25;5005347;28;20029;-74
2021/03/17 09:33:37;;;;;;;34.53;16.77;;;;;;;7.03;79.65;98848.56;5004794;28;20029;-75
2021/03/17 09:36:09;;;;;;;55.45;30.45;;;;;;;7.17;79.67;98858.22;5006346;28;20034;-75
2021/03/17 09:38:36;;;;;;;;;;;;;;;7.30;79.38;98861.97;5006921;28;20460;-75
2021/03/17 09:41:14;;;;;;;31.77;17.88;;;;;;;7.01;79.48;98868.78;5004311;28;19976;-73
2021/03/17 09:43:59;;;;;;;28.15;16.15;;;;;;;7.19;79.93;98862.31;5005878;28;20053;-74
2021/03/17 09:46:35;;;;;;;31.10;17.23;;;;;;;7.20;79.50;98863.16;5004894;28;20544;-73
2021/03/17 09:49:11;;;;;;;26.52;16.95;;;;;;;7.05;78.55;98868.72;5007703;28;20030;-75
2021/03/17 09:51:57;;;;;;;29.38;19.75;;;;;;;7.08;81.06;98868.59;5006191;28;20034;-74
2021/03/17 09:54:27;;;;;;;41.40;21.85;;;;;;;7.03;81.58;98869.56;5006801;28;20108;-73
2021/03/17 09:56:54;;;;;;;36.33;22.52;;;;;;;7.00;81.62;98868.84;5007201;28;20048;-73
2021/03/17 09:59:32;;;;;;;23.88;18.08;;;;;;;6.92;81.15;98853.94;5006476;28;20033;-73
2021/03/17 10:02:01;;;;;;;23.73;15.38;;;;;;;7.12;81.90;98870.16;5005457;28;20029;-74
2021/03/17 10:04:35;;;;;;;50.97;27.40;;;;;;;7.07;80.95;98872.03;5007431;28;20044;-74
2021/03/17 10:07:05;;;;;;;24.73;19.48;;;;;;;7.04;78.40;98877.97;5006043;28;20036;-75
2021/03/17 10:09:37;;;;;;;22.67;12.13;;;;;;;7.13;79.67;98884.47;5012398;28;20029;-74
2021/03/17 10:12:16;;;;;;;29.00;17.73;;;;;;;7.19;79.29;98887.59;5025825;28;20113;-76
2021/03/17 10:14:47;;;;;;;23.10;14.55;;;;;;;7.20;81.10;98875.78;5027009;28;20025;-74
2021/03/17 10:17:15;;;;;;;30.08;18.75;;;;;;;7.13;82.32;98892.03;5024025;28;20033;-76
2021/03/17 10:19:41;;;;;;;26.98;19.38;;;;;;;6.78;81.68;98876.28;5026296;28;20037;-74
2021/03/17 10:22:09;;;;;;;25.70;18.20;;;;;;;7.17;81.40;98893.59;5026220;28;20151;-75
2021/03/17 10:24:43;;;;;;;28.92;19.52;;;;;;;7.17;80.70;98893.59;5026808;28;20049;-75
2021/03/17 10:27:17;;;;;;;29.08;19.38;;;;;;;7.19;80.56;98895.16;5025416;28;20065;-74
2021/03/17 10:29:44;;;;;;;24.85;17.17;;;;;;;7.10;80.42;98897.16;5025860;28;20025;-74
2021/03/17 10:32:15;;;;;;;28.65;19.45;;;;;;;7.14;81.50;98886.94;5021855;28;20030;-76
2021/03/17 10:34:43;;;;;;;30.23;19.53;;;;;;;7.23;80.72;98896.72;4994885;28;20105;-75
2021/03/17 10:37:14;;;;;;;25.42;19.48;;;;;;;7.04;80.93;98890.63;5004294;28;20033;-75
2021/03/17 10:39:41;;;;;;;37.63;18.75;;;;;;;6.91;80.47;98890.16;5004858;28;20091;-77
2021/03/17 10:42:27;;;;;;;34.75;24.23;;;;;;;7.09;80.58;98896.34;5004603;28;20045;-75
2021/03/17 10:45:19;;;;;;;42.47;25.20;;;;;;;7.12;81.61;98891.22;5004855;28;20472;-74
2021/03/17 10:47:45;;;;;;;28.45;19.85;;;;;;;7.15;80.55;98873.41;5005837;28;20029;-76
2021/03/17 10:50:37;;;;;;;23.88;17.35;;;;;;;7.13;79.07;98897.91;5005910;28;20066;-76
2021/03/17 10:53:22;;;;;;;30.75;20.10;;;;;;;7.40;79.73;98898.72;5005668;28;20081;-76
2021/03/17 10:55:49;;;;;;;31.52;21.45;;;;;;;7.27;80.36;98894.94;5007598;28;20049;-74
2021/03/17 10:58:23;;;;;;;26.70;19.83;;;;;;;7.09;81.08;98882.91;5006897;28;20034;-75
2021/03/17 11:00:54;;;;;;;25.05;17.73;;;;;;;6.92;79.62;98879.19;5006393;28;20038;-75
2021/03/17 11:03:39;;;;;;;17.63;13.50;;;;;;;7.08;78.58;98896.41;5006444;28;20041;-75
2021/03/17 11:06:20;;;;;;;29.02;20.20;;;;;;;7.19;78.60;98892.66;5008993;28;20672;-76
2021/03/17 11:09:06;;;;;;;34.30;23.17;;;;;;;7.08;78.99;98898.91;5011373;28;20469;-74
2021/03/17 11:11:49;;;;;;;27.60;16.92;;;;;;;7.01;78.77;98904.16;5031169;28;20464;-74
2021/03/17 11:14:37;;;;;;;28.95;18.30;;;;;;;7.16;80.30;98899.50;5029356;28;20068;-74
2021/03/17 11:17:06;;;;;;;23.45;18.05;;;;;;;7.34;80.23;98891.34;5029228;28;20032;-73
2021/03/17 11:19:32;;;;;;;18.88;15.05;;;;;;;7.06;79.63;98893.91;5029547;28;20030;-75
2021/03/17 11:21:58;;;;;;;27.50;21.65;;;;;;;7.21;79.53;98890.09;5029439;28;20123;-75
2021/03/17 11:24:24;;;;;;;28.85;23.92;;;;;;;7.16;79.10;98894.44;5030138;28;20041;-75
2021/03/17 11:26:52;;;;;;;24.58;17.92;;;;;;;7.15;79.71;98902.94;5030288;28;20036;-75
2021/03/17 11:29:19;;;;;;;22.20;16.00;;;;;;;6.96;79.32;98890.88;5028941;28;20589;-75
2021/03/17 11:31:48;;;;;;;21.92;16.58;;;;;;;6.92;79.49;98884.25;5028855;28;20025;-76
2021/03/17 11:34:16;;;;;;;19.80;14.95;;;;;;;6.97;79.58;98911.91;5028751;28;20029;-75
2021/03/17 11:36:43;;;;;;;22.40;16.20;;;;;;;7.02;78.65;98910.03;5030100;28;20021;-75
2021/03/17 11:39:12;;;;;;;18.02;13.38;;;;;;;6.92;80.86;98909.50;5030671;28;20036;-76
2021/03/17 11:41:38;;;;;;;20.40;14.82;;;;;;;6.74;79.42;98907.53;5029348;28;20163;-75
2021/03/17 11:44:05;;;;;;;17.08;13.27;;;;;;;6.88;80.95;98928.16;5030260;28;20030;-75
2021/03/17 11:46:32;;;;;;;15.15;12.35;;;;;;;6.85;81.25;98918.13;5027923;28;20037;-76
2021/03/17 11:48:58;;;;;;;20.90;15.45;;;;;;;6.93;82.01;98923.78;5008802;28;20026;-75
2021/03/17 11:51:24;;;;;;;20.75;15.63;;;;;;;6.75;80.20;98921.84;5010215;28;20488;-75
2021/03/17 11:53:51;;;;;;;16.45;13.68;;;;;;;6.66;81.16;98932.19;5006078;28;20034;-76